sensor_id;sensor_type;location;lat;lon;timestamp;P1;durP1;ratioP1;P2;durP2;ratioP2
36441;SDS011;64346;50.820;16.274;2023-03-11T00:01:17;3.15;;;1.20;;
36441;SDS011;64346;50.820;16.274;2023-03-11T00:03:44;1.58;;;1.30;;
36441;SDS011;64346;50.820;16.274;2023-03-11T00:06:11;2.08;;;1.10;;
36441;SDS011;64346;50.820;16.274;2023-03-11T00:08:38;1.45;;;1.35;;
36441;SDS011;64346;50.820;16.274;2023-03-11T00:11:06;1.85;;;1.20;;
36441;SDS011;64346;50.820;16.274;2023-03-11T00:13:33;2.92;;;1.25;;
36441;SDS011;64346;50.820;16.274;2023-03-11T00:16:03;1.40;;;1.30;;
36441;SDS011;64346;50.820;16.274;2023-03-11T00:18:30;2.70;;;0.90;;
36441;SDS011;64346;50.820;16.274;2023-03-11T00:21:00;1.38;;;1.00;;
36441;SDS011;64346;50.820;16.274;2023-03-11T00:23:28;1.65;;;1.23;;
36441;SDS011;64346;50.820;16.274;2023-03-11T00:26:02;2.10;;;1.40;;
36441;SDS011;64346;50.820;16.274;2023-03-11T00:28:29;4.30;;;2.03;;
36441;SDS011;64346;50.820;16.274;2023-03-11T00:31:00;3.55;;;2.08;;
36441;SDS011;64346;50.820;16.274;2023-03-11T00:33:32;1.98;;;1.40;;
36441;SDS011;64346;50.820;16.274;2023-03-11T00:36:00;3.05;;;1.42;;
36441;SDS011;64346;50.820;16.274;2023-03-11T00:38:27;3.78;;;1.33;;
36441;SDS011;64346;50.820;16.274;2023-03-11T00:40:55;3.15;;;1.65;;
36441;SDS011;64346;50.820;16.274;2023-03-11T00:43:24;2.53;;;1.38;;
36441;SDS011;64346;50.820;16.274;2023-03-11T00:45:52;2.22;;;1.48;;
36441;SDS011;64346;50.820;16.274;2023-03-11T00:48:19;3.83;;;1.50;;
36441;SDS011;64346;50.820;16.274;2023-03-11T00:50:49;1.77;;;1.10;;
36441;SDS011;64346;50.820;16.274;2023-03-11T00:53:16;1.67;;;1.17;;
36441;SDS011;64346;50.820;16.274;2023-03-11T00:55:43;1.73;;;1.10;;
36441;SDS011;64346;50.820;16.274;2023-03-11T00:58:10;1.75;;;1.08;;
36441;SDS011;64346;50.820;16.274;2023-03-11T01:00:38;1.42;;;1.17;;
36441;SDS011;64346;50.820;16.274;2023-03-11T01:03:05;3.63;;;1.60;;
36441;SDS011;64346;50.820;16.274;2023-03-11T01:05:37;2.60;;;1.30;;
36441;SDS011;64346;50.820;16.274;2023-03-11T01:08:06;3.25;;;1.42;;
36441;SDS011;64346;50.820;16.274;2023-03-11T01:10:34;2.58;;;1.27;;
36441;SDS011;64346;50.820;16.274;2023-03-11T01:13:03;2.42;;;1.20;;
36441;SDS011;64346;50.820;16.274;2023-03-11T01:15:32;2.22;;;1.30;;
36441;SDS011;64346;50.820;16.274;2023-03-11T01:18:02;3.80;;;1.20;;
36441;SDS011;64346;50.820;16.274;2023-03-11T01:20:30;2.45;;;1.15;;
36441;SDS011;64346;50.820;16.274;2023-03-11T01:23:00;2.83;;;1.52;;
36441;SDS011;64346;50.820;16.274;2023-03-11T01:25:29;1.75;;;1.35;;
36441;SDS011;64346;50.820;16.274;2023-03-11T01:27:57;2.85;;;1.27;;
36441;SDS011;64346;50.820;16.274;2023-03-11T01:30:25;2.88;;;1.48;;
36441;SDS011;64346;50.820;16.274;2023-03-11T01:32:53;2.70;;;1.42;;
36441;SDS011;64346;50.820;16.274;2023-03-11T01:35:24;2.60;;;1.55;;
36441;SDS011;64346;50.820;16.274;2023-03-11T01:37:53;2.97;;;1.20;;
36441;SDS011;64346;50.820;16.274;2023-03-11T01:42:57;4.00;;;1.35;;
36441;SDS011;64346;50.820;16.274;2023-03-11T01:48:02;3.30;;;1.33;;
36441;SDS011;64346;50.820;16.274;2023-03-11T01:50:31;2.75;;;1.73;;
36441;SDS011;64346;50.820;16.274;2023-03-11T01:53:01;3.78;;;1.48;;
36441;SDS011;64346;50.820;16.274;2023-03-11T01:55:30;0.82;;;0.80;;
36441;SDS011;64346;50.820;16.274;2023-03-11T01:58:01;1.00;;;0.90;;
36441;SDS011;64346;50.820;16.274;2023-03-11T02:00:36;2.00;;;1.08;;
36441;SDS011;64346;50.820;16.274;2023-03-11T02:03:10;1.38;;;0.90;;
36441;SDS011;64346;50.820;16.274;2023-03-11T02:05:46;1.55;;;0.82;;
36441;SDS011;64346;50.820;16.274;2023-03-11T02:08:15;3.40;;;0.82;;
36441;SDS011;64346;50.820;16.274;2023-03-11T02:10:42;1.75;;;0.63;;
36441;SDS011;64346;50.820;16.274;2023-03-11T02:13:10;0.95;;;0.60;;
36441;SDS011;64346;50.820;16.274;2023-03-11T02:15:41;1.17;;;0.65;;
36441;SDS011;64346;50.820;16.274;2023-03-11T02:18:11;0.55;;;0.50;;
36441;SDS011;64346;50.820;16.274;2023-03-11T02:23:41;1.15;;;0.40;;
36441;SDS011;64346;50.820;16.274;2023-03-11T02:28:43;0.35;;;0.35;;
36441;SDS011;64346;50.820;16.274;2023-03-11T02:31:15;0.52;;;0.50;;
36441;SDS011;64346;50.820;16.274;2023-03-11T02:33:45;0.63;;;0.30;;
36441;SDS011;64346;50.820;16.274;2023-03-11T02:39:16;0.57;;;0.40;;
36441;SDS011;64346;50.820;16.274;2023-03-11T02:41:54;0.85;;;0.50;;
36441;SDS011;64346;50.820;16.274;2023-03-11T02:44:22;0.80;;;0.38;;
36441;SDS011;64346;50.820;16.274;2023-03-11T02:46:52;0.93;;;0.38;;
36441;SDS011;64346;50.820;16.274;2023-03-11T02:49:22;0.50;;;0.40;;
36441;SDS011;64346;50.820;16.274;2023-03-11T02:51:50;0.95;;;0.40;;
36441;SDS011;64346;50.820;16.274;2023-03-11T02:54:17;0.32;;;0.30;;
36441;SDS011;64346;50.820;16.274;2023-03-11T02:56:47;0.63;;;0.20;;
36441;SDS011;64346;50.820;16.274;2023-03-11T02:59:16;0.35;;;0.35;;
36441;SDS011;64346;50.820;16.274;2023-03-11T03:01:46;0.70;;;0.20;;
36441;SDS011;64346;50.820;16.274;2023-03-11T03:04:15;0.30;;;0.30;;
36441;SDS011;64346;50.820;16.274;2023-03-11T03:06:43;1.00;;;0.30;;
36441;SDS011;64346;50.820;16.274;2023-03-11T03:09:12;0.25;;;0.25;;
36441;SDS011;64346;50.820;16.274;2023-03-11T03:11:42;0.68;;;0.40;;
36441;SDS011;64346;50.820;16.274;2023-03-11T03:14:11;0.60;;;0.40;;
36441;SDS011;64346;50.820;16.274;2023-03-11T03:16:39;0.65;;;0.20;;
36441;SDS011;64346;50.820;16.274;2023-03-11T03:19:06;1.38;;;0.30;;
36441;SDS011;64346;50.820;16.274;2023-03-11T03:21:35;0.35;;;0.20;;
36441;SDS011;64346;50.820;16.274;2023-03-11T03:24:03;0.20;;;0.20;;
36441;SDS011;64346;50.820;16.274;2023-03-11T03:26:30;0.52;;;0.45;;
36441;SDS011;64346;50.820;16.274;2023-03-11T03:28:57;0.22;;;0.20;;
36441;SDS011;64346;50.820;16.274;2023-03-11T03:31:27;1.27;;;0.40;;
36441;SDS011;64346;50.820;16.274;2023-03-11T03:33:54;1.08;;;0.25;;
36441;SDS011;64346;50.820;16.274;2023-03-11T03:36:22;0.32;;;0.30;;
36441;SDS011;64346;50.820;16.274;2023-03-11T03:38:54;0.30;;;0.30;;
36441;SDS011;64346;50.820;16.274;2023-03-11T03:41:25;1.35;;;0.20;;
36441;SDS011;64346;50.820;16.274;2023-03-11T03:43:54;0.22;;;0.20;;
36441;SDS011;64346;50.820;16.274;2023-03-11T03:46:21;0.50;;;0.50;;
36441;SDS011;64346;50.820;16.274;2023-03-11T03:48:51;0.40;;;0.40;;
36441;SDS011;64346;50.820;16.274;2023-03-11T03:51:18;1.23;;;0.40;;
36441;SDS011;64346;50.820;16.274;2023-03-11T03:53:45;0.45;;;0.30;;
36441;SDS011;64346;50.820;16.274;2023-03-11T03:56:14;0.20;;;0.20;;
36441;SDS011;64346;50.820;16.274;2023-03-11T03:58:43;0.22;;;0.22;;
36441;SDS011;64346;50.820;16.274;2023-03-11T04:04:00;0.52;;;0.30;;
36441;SDS011;64346;50.820;16.274;2023-03-11T04:06:28;0.40;;;0.32;;
36441;SDS011;64346;50.820;16.274;2023-03-11T04:08:55;0.45;;;0.45;;
36441;SDS011;64346;50.820;16.274;2023-03-11T04:11:27;0.30;;;0.30;;
36441;SDS011;64346;50.820;16.274;2023-03-11T04:13:54;0.30;;;0.30;;
36441;SDS011;64346;50.820;16.274;2023-03-11T04:16:24;0.28;;;0.28;;
36441;SDS011;64346;50.820;16.274;2023-03-11T04:18:51;0.30;;;0.30;;
36441;SDS011;64346;50.820;16.274;2023-03-11T04:21:21;0.20;;;0.20;;
36441;SDS011;64346;50.820;16.274;2023-03-11T04:23:48;0.20;;;0.20;;
36441;SDS011;64346;50.820;16.274;2023-03-11T04:26:16;0.43;;;0.43;;
36441;SDS011;64346;50.820;16.274;2023-03-11T04:28:45;0.30;;;0.30;;
36441;SDS011;64346;50.820;16.274;2023-03-11T04:31:13;0.22;;;0.22;;
36441;SDS011;64346;50.820;16.274;2023-03-11T04:33:40;0.60;;;0.43;;
36441;SDS011;64346;50.820;16.274;2023-03-11T04:36:07;0.28;;;0.28;;
36441;SDS011;64346;50.820;16.274;2023-03-11T04:38:38;0.43;;;0.43;;
36441;SDS011;64346;50.820;16.274;2023-03-11T04:41:05;0.20;;;0.20;;
36441;SDS011;64346;50.820;16.274;2023-03-11T04:43:33;0.30;;;0.30;;
36441;SDS011;64346;50.820;16.274;2023-03-11T04:46:03;0.30;;;0.30;;
36441;SDS011;64346;50.820;16.274;2023-03-11T04:48:30;0.30;;;0.30;;
36441;SDS011;64346;50.820;16.274;2023-03-11T04:51:00;0.47;;;0.47;;
36441;SDS011;64346;50.820;16.274;2023-03-11T04:53:30;0.47;;;0.47;;
36441;SDS011;64346;50.820;16.274;2023-03-11T04:55:59;0.60;;;0.60;;
36441;SDS011;64346;50.820;16.274;2023-03-11T04:58:27;0.80;;;0.60;;
36441;SDS011;64346;50.820;16.274;2023-03-11T05:00:54;0.75;;;0.60;;
36441;SDS011;64346;50.820;16.274;2023-03-11T05:03:21;0.40;;;0.40;;
36441;SDS011;64346;50.820;16.274;2023-03-11T05:05:53;0.73;;;0.60;;
36441;SDS011;64346;50.820;16.274;2023-03-11T05:08:23;0.40;;;0.40;;
36441;SDS011;64346;50.820;16.274;2023-03-11T05:10:50;0.50;;;0.50;;
36441;SDS011;64346;50.820;16.274;2023-03-11T05:13:20;0.43;;;0.40;;
36441;SDS011;64346;50.820;16.274;2023-03-11T05:15:47;0.30;;;0.30;;
36441;SDS011;64346;50.820;16.274;2023-03-11T05:18:17;0.77;;;0.60;;
36441;SDS011;64346;50.820;16.274;2023-03-11T05:20:45;0.70;;;0.60;;
36441;SDS011;64346;50.820;16.274;2023-03-11T05:23:13;1.50;;;0.70;;
36441;SDS011;64346;50.820;16.274;2023-03-11T05:25:43;2.13;;;0.80;;
36441;SDS011;64346;50.820;16.274;2023-03-11T05:28:10;1.35;;;0.52;;
36441;SDS011;64346;50.820;16.274;2023-03-11T05:30:38;0.68;;;0.57;;
36441;SDS011;64346;50.820;16.274;2023-03-11T05:33:07;0.40;;;0.40;;
36441;SDS011;64346;50.820;16.274;2023-03-11T05:35:37;0.50;;;0.50;;
36441;SDS011;64346;50.820;16.274;2023-03-11T05:38:06;0.88;;;0.70;;
36441;SDS011;64346;50.820;16.274;2023-03-11T05:40:34;0.57;;;0.57;;
36441;SDS011;64346;50.820;16.274;2023-03-11T05:43:01;1.27;;;0.80;;
36441;SDS011;64346;50.820;16.274;2023-03-11T05:45:28;0.63;;;0.63;;
36441;SDS011;64346;50.820;16.274;2023-03-11T05:47:55;2.83;;;0.60;;
36441;SDS011;64346;50.820;16.274;2023-03-11T05:50:25;0.93;;;0.60;;
36441;SDS011;64346;50.820;16.274;2023-03-11T05:52:52;1.35;;;0.90;;
36441;SDS011;64346;50.820;16.274;2023-03-11T05:55:22;0.80;;;0.80;;
36441;SDS011;64346;50.820;16.274;2023-03-11T05:57:51;0.70;;;0.70;;
36441;SDS011;64346;50.820;16.274;2023-03-11T06:00:24;1.73;;;1.02;;
36441;SDS011;64346;50.820;16.274;2023-03-11T06:02:51;1.65;;;1.00;;
36441;SDS011;64346;50.820;16.274;2023-03-11T06:05:20;1.42;;;0.65;;
36441;SDS011;64346;50.820;16.274;2023-03-11T06:07:48;1.67;;;1.10;;
36441;SDS011;64346;50.820;16.274;2023-03-11T06:10:18;1.83;;;0.90;;
36441;SDS011;64346;50.820;16.274;2023-03-11T06:12:45;1.15;;;1.00;;
36441;SDS011;64346;50.820;16.274;2023-03-11T06:15:15;1.88;;;0.90;;
36441;SDS011;64346;50.820;16.274;2023-03-11T06:17:42;1.23;;;0.88;;
36441;SDS011;64346;50.820;16.274;2023-03-11T06:20:14;1.02;;;0.80;;
36441;SDS011;64346;50.820;16.274;2023-03-11T06:22:41;1.45;;;0.80;;
36441;SDS011;64346;50.820;16.274;2023-03-11T06:25:09;2.28;;;1.13;;
36441;SDS011;64346;50.820;16.274;2023-03-11T06:27:36;2.30;;;1.48;;
36441;SDS011;64346;50.820;16.274;2023-03-11T06:30:04;1.65;;;0.75;;
36441;SDS011;64346;50.820;16.274;2023-03-11T06:32:34;1.52;;;0.90;;
36441;SDS011;64346;50.820;16.274;2023-03-11T06:35:04;0.73;;;0.70;;
36441;SDS011;64346;50.820;16.274;2023-03-11T06:37:37;0.50;;;0.50;;
36441;SDS011;64346;50.820;16.274;2023-03-11T06:40:04;0.82;;;0.65;;
36441;SDS011;64346;50.820;16.274;2023-03-11T06:42:34;1.35;;;1.00;;
36441;SDS011;64346;50.820;16.274;2023-03-11T06:45:04;0.77;;;0.77;;
36441;SDS011;64346;50.820;16.274;2023-03-11T06:47:32;0.50;;;0.50;;
36441;SDS011;64346;50.820;16.274;2023-03-11T06:49:59;1.55;;;0.88;;
36441;SDS011;64346;50.820;16.274;2023-03-11T06:52:26;2.60;;;1.00;;
36441;SDS011;64346;50.820;16.274;2023-03-11T06:54:54;1.75;;;1.02;;
36441;SDS011;64346;50.820;16.274;2023-03-11T06:57:23;1.75;;;0.90;;
36441;SDS011;64346;50.820;16.274;2023-03-11T06:59:51;1.08;;;0.77;;
36441;SDS011;64346;50.820;16.274;2023-03-11T07:02:18;2.03;;;0.90;;
36441;SDS011;64346;50.820;16.274;2023-03-11T07:04:47;1.52;;;1.02;;
36441;SDS011;64346;50.820;16.274;2023-03-11T07:07:15;0.80;;;0.70;;
36441;SDS011;64346;50.820;16.274;2023-03-11T07:09:43;2.88;;;1.13;;
36441;SDS011;64346;50.820;16.274;2023-03-11T07:12:12;2.60;;;0.90;;
36441;SDS011;64346;50.820;16.274;2023-03-11T07:14:40;2.83;;;1.00;;
36441;SDS011;64346;50.820;16.274;2023-03-11T07:17:07;11.48;;;5.53;;
36441;SDS011;64346;50.820;16.274;2023-03-11T07:19:34;1.48;;;1.00;;
36441;SDS011;64346;50.820;16.274;2023-03-11T07:22:01;1.33;;;0.82;;
36441;SDS011;64346;50.820;16.274;2023-03-11T07:24:29;3.13;;;0.80;;
36441;SDS011;64346;50.820;16.274;2023-03-11T07:26:56;1.40;;;0.73;;
36441;SDS011;64346;50.820;16.274;2023-03-11T07:29:23;1.45;;;1.05;;
36441;SDS011;64346;50.820;16.274;2023-03-11T07:31:52;3.63;;;1.10;;
36441;SDS011;64346;50.820;16.274;2023-03-11T07:34:24;1.00;;;0.77;;
36441;SDS011;64346;50.820;16.274;2023-03-11T07:36:52;1.88;;;0.63;;
36441;SDS011;64346;50.820;16.274;2023-03-11T07:39:19;1.30;;;1.20;;
36441;SDS011;64346;50.820;16.274;2023-03-11T07:41:49;1.98;;;0.98;;
36441;SDS011;64346;50.820;16.274;2023-03-11T07:44:16;0.95;;;0.75;;
36441;SDS011;64346;50.820;16.274;2023-03-11T07:46:44;1.38;;;0.80;;
36441;SDS011;64346;50.820;16.274;2023-03-11T07:49:12;0.75;;;0.75;;
36441;SDS011;64346;50.820;16.274;2023-03-11T07:51:39;0.88;;;0.70;;
36441;SDS011;64346;50.820;16.274;2023-03-11T07:54:08;1.58;;;1.20;;
36441;SDS011;64346;50.820;16.274;2023-03-11T07:56:36;2.42;;;0.88;;
36441;SDS011;64346;50.820;16.274;2023-03-11T07:59:06;2.05;;;1.00;;
36441;SDS011;64346;50.820;16.274;2023-03-11T08:01:33;1.20;;;0.90;;
36441;SDS011;64346;50.820;16.274;2023-03-11T08:04:03;1.20;;;0.93;;
36441;SDS011;64346;50.820;16.274;2023-03-11T08:06:32;2.25;;;0.80;;
36441;SDS011;64346;50.820;16.274;2023-03-11T08:09:03;2.65;;;1.00;;
36441;SDS011;64346;50.820;16.274;2023-03-11T08:11:31;0.85;;;0.85;;
36441;SDS011;64346;50.820;16.274;2023-03-11T08:14:01;1.33;;;1.00;;
36441;SDS011;64346;50.820;16.274;2023-03-11T08:16:29;4.20;;;1.88;;
36441;SDS011;64346;50.820;16.274;2023-03-11T08:18:59;3.47;;;1.30;;
36441;SDS011;64346;50.820;16.274;2023-03-11T08:21:27;3.13;;;1.05;;
36441;SDS011;64346;50.820;16.274;2023-03-11T08:23:58;2.30;;;1.50;;
36441;SDS011;64346;50.820;16.274;2023-03-11T08:26:27;2.20;;;1.40;;
36441;SDS011;64346;50.820;16.274;2023-03-11T08:28:56;3.45;;;1.52;;
36441;SDS011;64346;50.820;16.274;2023-03-11T08:31:25;2.92;;;1.33;;
36441;SDS011;64346;50.820;16.274;2023-03-11T08:34:00;2.55;;;1.23;;
36441;SDS011;64346;50.820;16.274;2023-03-11T08:36:30;2.47;;;1.48;;
36441;SDS011;64346;50.820;16.274;2023-03-11T08:39:01;2.63;;;1.30;;
36441;SDS011;64346;50.820;16.274;2023-03-11T08:41:31;1.42;;;1.10;;
36441;SDS011;64346;50.820;16.274;2023-03-11T08:43:58;2.88;;;1.20;;
36441;SDS011;64346;50.820;16.274;2023-03-11T08:46:27;1.63;;;1.40;;
36441;SDS011;64346;50.820;16.274;2023-03-11T08:48:55;1.92;;;1.35;;
36441;SDS011;64346;50.820;16.274;2023-03-11T08:51:26;2.03;;;1.55;;
36441;SDS011;64346;50.820;16.274;2023-03-11T08:53:55;3.08;;;1.50;;
36441;SDS011;64346;50.820;16.274;2023-03-11T08:56:23;2.50;;;1.58;;
36441;SDS011;64346;50.820;16.274;2023-03-11T08:58:50;3.42;;;1.90;;
36441;SDS011;64346;50.820;16.274;2023-03-11T09:01:20;2.58;;;1.60;;
36441;SDS011;64346;50.820;16.274;2023-03-11T09:03:50;3.17;;;1.77;;
36441;SDS011;64346;50.820;16.274;2023-03-11T09:06:17;2.80;;;1.80;;
36441;SDS011;64346;50.820;16.274;2023-03-11T09:08:48;1.90;;;1.48;;
36441;SDS011;64346;50.820;16.274;2023-03-11T09:11:16;2.70;;;1.58;;
36441;SDS011;64346;50.820;16.274;2023-03-11T09:13:45;2.92;;;1.70;;
36441;SDS011;64346;50.820;16.274;2023-03-11T09:16:16;2.25;;;1.65;;
36441;SDS011;64346;50.820;16.274;2023-03-11T09:18:45;5.53;;;2.40;;
36441;SDS011;64346;50.820;16.274;2023-03-11T09:21:13;3.65;;;1.67;;
36441;SDS011;64346;50.820;16.274;2023-03-11T09:23:40;3.17;;;1.80;;
36441;SDS011;64346;50.820;16.274;2023-03-11T09:26:10;2.92;;;1.80;;
36441;SDS011;64346;50.820;16.274;2023-03-11T09:28:42;4.28;;;1.83;;
36441;SDS011;64346;50.820;16.274;2023-03-11T09:31:09;3.65;;;2.00;;
36441;SDS011;64346;50.820;16.274;2023-03-11T09:33:38;2.88;;;1.90;;
36441;SDS011;64346;50.820;16.274;2023-03-11T09:36:06;4.28;;;2.10;;
36441;SDS011;64346;50.820;16.274;2023-03-11T09:38:40;2.83;;;1.55;;
36441;SDS011;64346;50.820;16.274;2023-03-11T09:55:03;3.08;;;1.65;;
36441;SDS011;64346;50.820;16.274;2023-03-11T09:57:42;4.60;;;2.00;;
36441;SDS011;64346;50.820;16.274;2023-03-11T10:00:10;2.50;;;1.60;;
36441;SDS011;64346;50.820;16.274;2023-03-11T10:02:38;3.15;;;1.40;;
36441;SDS011;64346;50.820;16.274;2023-03-11T10:05:12;3.85;;;1.90;;
36441;SDS011;64346;50.820;16.274;2023-03-11T10:07:48;2.22;;;1.45;;
36441;SDS011;64346;50.820;16.274;2023-03-11T10:10:37;2.28;;;1.50;;
36441;SDS011;64346;50.820;16.274;2023-03-11T10:13:14;3.63;;;1.80;;
36441;SDS011;64346;50.820;16.274;2023-03-11T10:18:52;5.85;;;2.17;;
36441;SDS011;64346;50.820;16.274;2023-03-11T10:26:53;3.25;;;1.73;;
36441;SDS011;64346;50.820;16.274;2023-03-11T10:35:05;4.18;;;2.10;;
36441;SDS011;64346;50.820;16.274;2023-03-11T10:37:34;1.95;;;1.58;;
36441;SDS011;64346;50.820;16.274;2023-03-11T10:42:50;3.35;;;2.03;;
36441;SDS011;64346;50.820;16.274;2023-03-11T10:45:19;7.22;;;2.78;;
36441;SDS011;64346;50.820;16.274;2023-03-11T10:47:48;6.78;;;2.67;;
36441;SDS011;64346;50.820;16.274;2023-03-11T10:50:18;6.35;;;2.63;;
36441;SDS011;64346;50.820;16.274;2023-03-11T10:55:47;5.38;;;2.38;;
36441;SDS011;64346;50.820;16.274;2023-03-11T10:58:18;8.10;;;2.95;;
36441;SDS011;64346;50.820;16.274;2023-03-11T11:01:00;6.07;;;2.17;;
36441;SDS011;64346;50.820;16.274;2023-03-11T11:03:31;4.15;;;1.70;;
36441;SDS011;64346;50.820;16.274;2023-03-11T11:06:02;4.25;;;2.05;;
36441;SDS011;64346;50.820;16.274;2023-03-11T11:08:34;3.33;;;2.00;;
36441;SDS011;64346;50.820;16.274;2023-03-11T11:11:02;4.65;;;2.05;;
36441;SDS011;64346;50.820;16.274;2023-03-11T11:13:54;5.53;;;2.53;;
36441;SDS011;64346;50.820;16.274;2023-03-11T11:16:22;4.75;;;2.30;;
36441;SDS011;64346;50.820;16.274;2023-03-11T11:18:53;5.75;;;2.45;;
36441;SDS011;64346;50.820;16.274;2023-03-11T11:21:40;4.95;;;2.53;;
36441;SDS011;64346;50.820;16.274;2023-03-11T11:24:24;5.22;;;2.60;;
36441;SDS011;64346;50.820;16.274;2023-03-11T11:29:46;5.75;;;2.60;;
36441;SDS011;64346;50.820;16.274;2023-03-11T11:32:30;4.55;;;2.10;;
36441;SDS011;64346;50.820;16.274;2023-03-11T11:37:31;4.93;;;2.30;;
36441;SDS011;64346;50.820;16.274;2023-03-11T11:40:05;5.07;;;2.00;;
36441;SDS011;64346;50.820;16.274;2023-03-11T11:42:47;4.10;;;2.10;;
36441;SDS011;64346;50.820;16.274;2023-03-11T11:50:56;6.30;;;2.60;;
36441;SDS011;64346;50.820;16.274;2023-03-11T11:55:55;3.33;;;2.20;;
36441;SDS011;64346;50.820;16.274;2023-03-11T11:58:22;3.97;;;2.00;;
36441;SDS011;64346;50.820;16.274;2023-03-11T12:07:03;4.03;;;2.00;;
36441;SDS011;64346;50.820;16.274;2023-03-11T12:12:36;5.22;;;2.53;;
36441;SDS011;64346;50.820;16.274;2023-03-11T12:17:49;5.35;;;2.60;;
36441;SDS011;64346;50.820;16.274;2023-03-11T12:23:07;5.95;;;3.00;;
36441;SDS011;64346;50.820;16.274;2023-03-11T12:28:19;6.65;;;3.15;;
36441;SDS011;64346;50.820;16.274;2023-03-11T12:30:55;5.30;;;2.70;;
36441;SDS011;64346;50.820;16.274;2023-03-11T12:33:37;7.38;;;2.90;;
36441;SDS011;64346;50.820;16.274;2023-03-11T12:36:17;5.78;;;3.03;;
36441;SDS011;64346;50.820;16.274;2023-03-11T12:38:57;7.20;;;3.03;;
36441;SDS011;64346;50.820;16.274;2023-03-11T12:44:04;6.57;;;2.85;;
36441;SDS011;64346;50.820;16.274;2023-03-11T12:49:30;5.53;;;2.70;;
36441;SDS011;64346;50.820;16.274;2023-03-11T13:05:06;5.70;;;2.70;;
36441;SDS011;64346;50.820;16.274;2023-03-11T13:07:45;6.22;;;3.00;;
36441;SDS011;64346;50.820;16.274;2023-03-11T13:15:55;4.43;;;2.55;;
36441;SDS011;64346;50.820;16.274;2023-03-11T13:18:43;5.47;;;2.65;;
36441;SDS011;64346;50.820;16.274;2023-03-11T13:33:04;4.93;;;2.75;;
36441;SDS011;64346;50.820;16.274;2023-03-11T13:35:53;4.72;;;2.90;;
36441;SDS011;64346;50.820;16.274;2023-03-11T13:41:34;5.32;;;2.70;;
36441;SDS011;64346;50.820;16.274;2023-03-11T13:44:13;7.38;;;3.22;;
36441;SDS011;64346;50.820;16.274;2023-03-11T13:46:46;4.65;;;2.58;;
36441;SDS011;64346;50.820;16.274;2023-03-11T13:52:07;7.40;;;3.40;;
36441;SDS011;64346;50.820;16.274;2023-03-11T13:57:32;7.47;;;3.13;;
36441;SDS011;64346;50.820;16.274;2023-03-11T14:00:12;7.07;;;2.92;;
36441;SDS011;64346;50.820;16.274;2023-03-11T14:02:46;6.80;;;3.00;;
36441;SDS011;64346;50.820;16.274;2023-03-11T14:05:18;6.50;;;3.00;;
36441;SDS011;64346;50.820;16.274;2023-03-11T14:07:51;9.68;;;4.25;;
36441;SDS011;64346;50.820;16.274;2023-03-11T14:12:51;6.05;;;3.03;;
36441;SDS011;64346;50.820;16.274;2023-03-11T14:15:35;8.35;;;3.70;;
36441;SDS011;64346;50.820;16.274;2023-03-11T14:18:26;7.05;;;3.83;;
36441;SDS011;64346;50.820;16.274;2023-03-11T14:20:58;10.52;;;3.80;;
36441;SDS011;64346;50.820;16.274;2023-03-11T14:23:32;6.95;;;3.45;;
36441;SDS011;64346;50.820;16.274;2023-03-11T14:26:16;12.10;;;5.70;;
36441;SDS011;64346;50.820;16.274;2023-03-11T14:28:54;6.43;;;3.40;;
36441;SDS011;64346;50.820;16.274;2023-03-11T14:36:40;7.43;;;3.60;;
36441;SDS011;64346;50.820;16.274;2023-03-11T14:41:49;8.57;;;4.18;;
36441;SDS011;64346;50.820;16.274;2023-03-11T14:44:19;8.88;;;4.10;;
36441;SDS011;64346;50.820;16.274;2023-03-11T14:46:48;7.78;;;3.80;;
36441;SDS011;64346;50.820;16.274;2023-03-11T14:49:20;6.82;;;3.60;;
36441;SDS011;64346;50.820;16.274;2023-03-11T14:51:54;7.88;;;4.15;;
36441;SDS011;64346;50.820;16.274;2023-03-11T14:54:25;8.90;;;3.80;;
36441;SDS011;64346;50.820;16.274;2023-03-11T14:57:18;7.50;;;3.60;;
36441;SDS011;64346;50.820;16.274;2023-03-11T14:59:51;9.73;;;3.88;;
36441;SDS011;64346;50.820;16.274;2023-03-11T15:02:28;6.57;;;3.45;;
36441;SDS011;64346;50.820;16.274;2023-03-11T15:05:18;7.75;;;4.00;;
36441;SDS011;64346;50.820;16.274;2023-03-11T15:07:55;6.63;;;3.03;;
36441;SDS011;64346;50.820;16.274;2023-03-11T15:10:24;6.60;;;3.25;;
36441;SDS011;64346;50.820;16.274;2023-03-11T15:13:14;8.50;;;3.30;;
36441;SDS011;64346;50.820;16.274;2023-03-11T15:15:41;9.50;;;3.53;;
36441;SDS011;64346;50.820;16.274;2023-03-11T15:18:20;7.93;;;3.65;;
36441;SDS011;64346;50.820;16.274;2023-03-11T15:23:58;6.35;;;3.15;;
36441;SDS011;64346;50.820;16.274;2023-03-11T15:26:28;5.95;;;3.13;;
36441;SDS011;64346;50.820;16.274;2023-03-11T15:29:01;6.25;;;2.90;;
36441;SDS011;64346;50.820;16.274;2023-03-11T15:31:43;6.55;;;3.40;;
36441;SDS011;64346;50.820;16.274;2023-03-11T15:47:20;6.50;;;3.20;;
36441;SDS011;64346;50.820;16.274;2023-03-11T15:49:50;6.38;;;3.00;;
36441;SDS011;64346;50.820;16.274;2023-03-11T15:52:20;7.93;;;3.50;;
36441;SDS011;64346;50.820;16.274;2023-03-11T15:54:48;6.97;;;3.58;;
36441;SDS011;64346;50.820;16.274;2023-03-11T15:57:25;7.50;;;3.47;;
36441;SDS011;64346;50.820;16.274;2023-03-11T15:59:55;7.43;;;3.38;;
36441;SDS011;64346;50.820;16.274;2023-03-11T16:02:26;7.78;;;3.63;;
36441;SDS011;64346;50.820;16.274;2023-03-11T16:07:26;7.70;;;3.60;;
36441;SDS011;64346;50.820;16.274;2023-03-11T16:10:06;7.68;;;3.88;;
36441;SDS011;64346;50.820;16.274;2023-03-11T16:12:35;6.85;;;3.50;;
36441;SDS011;64346;50.820;16.274;2023-03-11T16:15:03;10.18;;;4.03;;
36441;SDS011;64346;50.820;16.274;2023-03-11T16:17:31;8.25;;;4.07;;
36441;SDS011;64346;50.820;16.274;2023-03-11T16:20:14;8.23;;;4.07;;
36441;SDS011;64346;50.820;16.274;2023-03-11T16:22:42;9.70;;;4.50;;
36441;SDS011;64346;50.820;16.274;2023-03-11T16:28:17;6.25;;;3.78;;
36441;SDS011;64346;50.820;16.274;2023-03-11T16:30:44;7.68;;;3.92;;
36441;SDS011;64346;50.820;16.274;2023-03-11T16:33:14;8.60;;;4.45;;
36441;SDS011;64346;50.820;16.274;2023-03-11T16:35:41;9.05;;;4.13;;
36441;SDS011;64346;50.820;16.274;2023-03-11T16:38:11;9.52;;;4.18;;
36441;SDS011;64346;50.820;16.274;2023-03-11T16:40:38;8.00;;;4.20;;
36441;SDS011;64346;50.820;16.274;2023-03-11T16:43:07;8.15;;;4.13;;
36441;SDS011;64346;50.820;16.274;2023-03-11T16:45:36;9.57;;;5.13;;
36441;SDS011;64346;50.820;16.274;2023-03-11T16:48:03;21.58;;;11.27;;
36441;SDS011;64346;50.820;16.274;2023-03-11T16:50:31;11.13;;;5.22;;
36441;SDS011;64346;50.820;16.274;2023-03-11T16:53:01;8.73;;;5.00;;
36441;SDS011;64346;50.820;16.274;2023-03-11T16:55:28;10.93;;;5.43;;
36441;SDS011;64346;50.820;16.274;2023-03-11T16:57:56;11.38;;;5.57;;
36441;SDS011;64346;50.820;16.274;2023-03-11T17:00:23;10.82;;;5.88;;
36441;SDS011;64346;50.820;16.274;2023-03-11T17:02:51;11.32;;;5.22;;
36441;SDS011;64346;50.820;16.274;2023-03-11T17:05:20;9.63;;;4.60;;
36441;SDS011;64346;50.820;16.274;2023-03-11T17:07:51;10.73;;;5.07;;
36441;SDS011;64346;50.820;16.274;2023-03-11T17:10:21;10.63;;;4.90;;
36441;SDS011;64346;50.820;16.274;2023-03-11T17:12:48;9.77;;;4.90;;
36441;SDS011;64346;50.820;16.274;2023-03-11T17:15:16;9.23;;;4.22;;
36441;SDS011;64346;50.820;16.274;2023-03-11T17:17:46;14.27;;;4.78;;
36441;SDS011;64346;50.820;16.274;2023-03-11T17:20:16;14.07;;;6.80;;
36441;SDS011;64346;50.820;16.274;2023-03-11T17:22:48;9.05;;;4.70;;
36441;SDS011;64346;50.820;16.274;2023-03-11T17:25:16;9.60;;;4.15;;
36441;SDS011;64346;50.820;16.274;2023-03-11T17:27:43;9.02;;;4.60;;
36441;SDS011;64346;50.820;16.274;2023-03-11T17:30:11;8.55;;;4.40;;